sensor_id;sensor_type;location;lat;lon;timestamp;P1;durP1;ratioP1;P2;durP2;ratioP2
77944;SDS011;67142;47.404;-1.384;2023-03-23T00:01:31;11.10;;;1.50;;
77944;SDS011;67142;47.404;-1.384;2023-03-23T00:04:01;9.70;;;1.65;;
77944;SDS011;67142;47.404;-1.384;2023-03-23T00:06:28;9.45;;;2.00;;
77944;SDS011;67142;47.404;-1.384;2023-03-23T00:08:57;7.55;;;1.50;;
77944;SDS011;67142;47.404;-1.384;2023-03-23T00:11:25;9.68;;;2.10;;
77944;SDS011;67142;47.404;-1.384;2023-03-23T00:13:54;12.57;;;2.10;;
77944;SDS011;67142;47.404;-1.384;2023-03-23T00:16:22;9.27;;;2.08;;
77944;SDS011;67142;47.404;-1.384;2023-03-23T00:19:00;14.00;;;2.10;;
77944;SDS011;67142;47.404;-1.384;2023-03-23T00:21:28;10.30;;;1.98;;
77944;SDS011;67142;47.404;-1.384;2023-03-23T00:26:27;7.07;;;1.53;;
77944;SDS011;67142;47.404;-1.384;2023-03-23T00:28:54;11.40;;;2.05;;
77944;SDS011;67142;47.404;-1.384;2023-03-23T00:31:20;10.95;;;1.80;;
77944;SDS011;67142;47.404;-1.384;2023-03-23T00:33:46;10.05;;;2.00;;
77944;SDS011;67142;47.404;-1.384;2023-03-23T00:36:12;11.05;;;2.10;;
77944;SDS011;67142;47.404;-1.384;2023-03-23T00:38:39;10.53;;;1.80;;
77944;SDS011;67142;47.404;-1.384;2023-03-23T00:41:09;7.88;;;2.20;;
77944;SDS011;67142;47.404;-1.384;2023-03-23T00:43:36;8.75;;;2.00;;
77944;SDS011;67142;47.404;-1.384;2023-03-23T00:46:04;11.65;;;2.08;;
77944;SDS011;67142;47.404;-1.384;2023-03-23T00:48:34;12.73;;;2.08;;
77944;SDS011;67142;47.404;-1.384;2023-03-23T00:51:01;11.63;;;1.93;;
77944;SDS011;67142;47.404;-1.384;2023-03-23T00:53:31;11.38;;;1.73;;
77944;SDS011;67142;47.404;-1.384;2023-03-23T00:55:57;8.98;;;1.77;;
77944;SDS011;67142;47.404;-1.384;2023-03-23T00:58:23;10.38;;;2.08;;
77944;SDS011;67142;47.404;-1.384;2023-03-23T01:00:49;8.00;;;1.55;;
77944;SDS011;67142;47.404;-1.384;2023-03-23T01:03:15;6.77;;;1.50;;
77944;SDS011;67142;47.404;-1.384;2023-03-23T01:05:43;11.45;;;2.47;;
77944;SDS011;67142;47.404;-1.384;2023-03-23T01:08:11;7.57;;;1.60;;
77944;SDS011;67142;47.404;-1.384;2023-03-23T01:10:38;11.43;;;1.50;;
77944;SDS011;67142;47.404;-1.384;2023-03-23T01:13:04;9.07;;;1.48;;
77944;SDS011;67142;47.404;-1.384;2023-03-23T01:15:31;10.57;;;1.40;;
77944;SDS011;67142;47.404;-1.384;2023-03-23T01:17:57;7.90;;;0.98;;
77944;SDS011;67142;47.404;-1.384;2023-03-23T01:20:24;9.35;;;1.73;;
77944;SDS011;67142;47.404;-1.384;2023-03-23T01:22:51;7.60;;;1.25;;
77944;SDS011;67142;47.404;-1.384;2023-03-23T01:25:18;12.10;;;1.52;;
77944;SDS011;67142;47.404;-1.384;2023-03-23T01:27:44;9.90;;;1.80;;
77944;SDS011;67142;47.404;-1.384;2023-03-23T01:30:11;15.50;;;2.15;;
77944;SDS011;67142;47.404;-1.384;2023-03-23T01:32:38;10.50;;;1.23;;
77944;SDS011;67142;47.404;-1.384;2023-03-23T01:35:04;11.70;;;1.25;;
77944;SDS011;67142;47.404;-1.384;2023-03-23T01:37:30;11.45;;;1.67;;
77944;SDS011;67142;47.404;-1.384;2023-03-23T01:39:57;9.50;;;1.40;;
77944;SDS011;67142;47.404;-1.384;2023-03-23T01:42:30;12.23;;;1.55;;
77944;SDS011;67142;47.404;-1.384;2023-03-23T01:45:17;10.63;;;1.77;;
77944;SDS011;67142;47.404;-1.384;2023-03-23T01:50:57;9.00;;;1.30;;
77944;SDS011;67142;47.404;-1.384;2023-03-23T01:53:24;11.10;;;1.53;;
77944;SDS011;67142;47.404;-1.384;2023-03-23T01:55:52;6.88;;;0.93;;
77944;SDS011;67142;47.404;-1.384;2023-03-23T01:58:19;13.27;;;1.23;;
77944;SDS011;67142;47.404;-1.384;2023-03-23T02:00:47;7.95;;;1.33;;
77944;SDS011;67142;47.404;-1.384;2023-03-23T02:03:13;9.52;;;1.67;;
77944;SDS011;67142;47.404;-1.384;2023-03-23T02:05:42;8.33;;;1.30;;
77944;SDS011;67142;47.404;-1.384;2023-03-23T02:08:08;8.60;;;1.50;;
77944;SDS011;67142;47.404;-1.384;2023-03-23T02:10:36;11.15;;;1.50;;
77944;SDS011;67142;47.404;-1.384;2023-03-23T02:13:03;7.28;;;1.27;;
77944;SDS011;67142;47.404;-1.384;2023-03-23T02:15:33;6.88;;;1.10;;
77944;SDS011;67142;47.404;-1.384;2023-03-23T02:18:23;6.33;;;1.00;;
77944;SDS011;67142;47.404;-1.384;2023-03-23T02:26:01;8.10;;;1.05;;
77944;SDS011;67142;47.404;-1.384;2023-03-23T02:28:37;5.60;;;0.85;;
77944;SDS011;67142;47.404;-1.384;2023-03-23T02:31:28;6.10;;;1.10;;
77944;SDS011;67142;47.404;-1.384;2023-03-23T02:36:34;5.15;;;1.20;;
77944;SDS011;67142;47.404;-1.384;2023-03-23T02:39:14;5.97;;;1.33;;
77944;SDS011;67142;47.404;-1.384;2023-03-23T02:42:26;8.20;;;1.30;;
77944;SDS011;67142;47.404;-1.384;2023-03-23T02:44:34;7.70;;;1.40;;
77944;SDS011;67142;47.404;-1.384;2023-03-23T02:47:01;9.40;;;1.30;;
77944;SDS011;67142;47.404;-1.384;2023-03-23T02:49:28;7.72;;;1.65;;
77944;SDS011;67142;47.404;-1.384;2023-03-23T02:51:56;8.52;;;1.40;;
77944;SDS011;67142;47.404;-1.384;2023-03-23T02:54:23;7.13;;;1.40;;
77944;SDS011;67142;47.404;-1.384;2023-03-23T02:56:50;7.63;;;1.00;;
77944;SDS011;67142;47.404;-1.384;2023-03-23T02:59:17;7.78;;;1.50;;
77944;SDS011;67142;47.404;-1.384;2023-03-23T03:04:13;6.68;;;1.45;;
77944;SDS011;67142;47.404;-1.384;2023-03-23T03:11:58;7.50;;;1.33;;
77944;SDS011;67142;47.404;-1.384;2023-03-23T03:14:28;7.93;;;1.35;;
77944;SDS011;67142;47.404;-1.384;2023-03-23T03:19:31;7.82;;;1.70;;
77944;SDS011;67142;47.404;-1.384;2023-03-23T03:21:58;8.30;;;1.90;;
77944;SDS011;67142;47.404;-1.384;2023-03-23T03:24:28;8.32;;;1.83;;
77944;SDS011;67142;47.404;-1.384;2023-03-23T03:26:56;9.73;;;1.80;;
77944;SDS011;67142;47.404;-1.384;2023-03-23T03:29:25;8.10;;;1.98;;
77944;SDS011;67142;47.404;-1.384;2023-03-23T03:31:52;10.93;;;2.05;;
77944;SDS011;67142;47.404;-1.384;2023-03-23T03:34:20;12.23;;;1.83;;
77944;SDS011;67142;47.404;-1.384;2023-03-23T03:36:47;10.65;;;2.08;;
77944;SDS011;67142;47.404;-1.384;2023-03-23T03:39:15;10.88;;;2.08;;
77944;SDS011;67142;47.404;-1.384;2023-03-23T03:41:42;13.43;;;2.58;;
77944;SDS011;67142;47.404;-1.384;2023-03-23T03:44:09;9.68;;;1.83;;
77944;SDS011;67142;47.404;-1.384;2023-03-23T03:46:35;10.17;;;2.10;;
77944;SDS011;67142;47.404;-1.384;2023-03-23T03:49:02;11.73;;;2.22;;
77944;SDS011;67142;47.404;-1.384;2023-03-23T03:51:29;13.00;;;2.67;;
77944;SDS011;67142;47.404;-1.384;2023-03-23T03:53:56;12.05;;;2.00;;
77944;SDS011;67142;47.404;-1.384;2023-03-23T03:56:22;14.63;;;2.38;;
77944;SDS011;67142;47.404;-1.384;2023-03-23T03:58:48;11.87;;;2.03;;
77944;SDS011;67142;47.404;-1.384;2023-03-23T04:01:15;14.02;;;2.25;;
77944;SDS011;67142;47.404;-1.384;2023-03-23T04:03:42;11.48;;;2.10;;
77944;SDS011;67142;47.404;-1.384;2023-03-23T04:06:08;13.30;;;2.92;;
77944;SDS011;67142;47.404;-1.384;2023-03-23T04:08:35;13.88;;;2.55;;
77944;SDS011;67142;47.404;-1.384;2023-03-23T04:11:02;13.07;;;1.90;;
77944;SDS011;67142;47.404;-1.384;2023-03-23T04:13:29;12.93;;;2.03;;
77944;SDS011;67142;47.404;-1.384;2023-03-23T04:15:55;15.85;;;2.10;;
77944;SDS011;67142;47.404;-1.384;2023-03-23T04:18:21;12.63;;;2.47;;
77944;SDS011;67142;47.404;-1.384;2023-03-23T04:20:49;15.95;;;2.13;;
77944;SDS011;67142;47.404;-1.384;2023-03-23T04:23:19;16.70;;;2.50;;
77944;SDS011;67142;47.404;-1.384;2023-03-23T04:25:46;17.92;;;2.55;;
77944;SDS011;67142;47.404;-1.384;2023-03-23T04:28:13;12.85;;;1.83;;
77944;SDS011;67142;47.404;-1.384;2023-03-23T04:30:42;15.27;;;2.00;;
77944;SDS011;67142;47.404;-1.384;2023-03-23T04:33:08;10.35;;;1.50;;
77944;SDS011;67142;47.404;-1.384;2023-03-23T04:35:40;14.90;;;2.23;;
77944;SDS011;67142;47.404;-1.384;2023-03-23T04:38:06;17.95;;;2.15;;
77944;SDS011;67142;47.404;-1.384;2023-03-23T04:40:35;12.05;;;2.63;;
77944;SDS011;67142;47.404;-1.384;2023-03-23T04:43:01;19.20;;;2.80;;
77944;SDS011;67142;47.404;-1.384;2023-03-23T04:45:30;14.88;;;2.40;;
77944;SDS011;67142;47.404;-1.384;2023-03-23T04:47:56;11.97;;;2.10;;
77944;SDS011;67142;47.404;-1.384;2023-03-23T04:50:23;17.35;;;2.70;;
77944;SDS011;67142;47.404;-1.384;2023-03-23T04:52:50;17.23;;;3.35;;
77944;SDS011;67142;47.404;-1.384;2023-03-23T04:55:17;18.80;;;2.67;;
77944;SDS011;67142;47.404;-1.384;2023-03-23T04:57:44;15.90;;;2.30;;
77944;SDS011;67142;47.404;-1.384;2023-03-23T05:00:10;21.07;;;2.13;;
77944;SDS011;67142;47.404;-1.384;2023-03-23T05:02:39;16.50;;;2.30;;
77944;SDS011;67142;47.404;-1.384;2023-03-23T05:05:06;20.02;;;2.42;;
77944;SDS011;67142;47.404;-1.384;2023-03-23T05:07:32;13.23;;;1.80;;
77944;SDS011;67142;47.404;-1.384;2023-03-23T05:09:58;18.23;;;3.03;;
77944;SDS011;67142;47.404;-1.384;2023-03-23T05:12:24;17.23;;;2.70;;
77944;SDS011;67142;47.404;-1.384;2023-03-23T05:14:50;25.25;;;3.60;;
77944;SDS011;67142;47.404;-1.384;2023-03-23T05:17:16;13.80;;;2.35;;
77944;SDS011;67142;47.404;-1.384;2023-03-23T05:19:43;16.33;;;1.90;;
77944;SDS011;67142;47.404;-1.384;2023-03-23T05:22:12;17.73;;;2.33;;
77944;SDS011;67142;47.404;-1.384;2023-03-23T05:24:39;18.27;;;2.37;;
77944;SDS011;67142;47.404;-1.384;2023-03-23T05:27:05;16.98;;;1.95;;
77944;SDS011;67142;47.404;-1.384;2023-03-23T05:29:33;15.40;;;2.17;;
77944;SDS011;67142;47.404;-1.384;2023-03-23T05:32:01;18.52;;;2.03;;
77944;SDS011;67142;47.404;-1.384;2023-03-23T05:34:27;16.52;;;2.55;;
77944;SDS011;67142;47.404;-1.384;2023-03-23T05:36:54;15.53;;;2.30;;
77944;SDS011;67142;47.404;-1.384;2023-03-23T05:39:22;15.98;;;2.33;;
77944;SDS011;67142;47.404;-1.384;2023-03-23T05:41:48;16.75;;;2.38;;
77944;SDS011;67142;47.404;-1.384;2023-03-23T05:44:14;22.70;;;2.30;;
77944;SDS011;67142;47.404;-1.384;2023-03-23T05:46:40;13.07;;;1.90;;
77944;SDS011;67142;47.404;-1.384;2023-03-23T05:49:06;21.80;;;2.30;;
77944;SDS011;67142;47.404;-1.384;2023-03-23T05:51:33;11.27;;;2.63;;
77944;SDS011;67142;47.404;-1.384;2023-03-23T05:54:00;20.10;;;2.75;;
77944;SDS011;67142;47.404;-1.384;2023-03-23T05:56:26;20.45;;;2.42;;
77944;SDS011;67142;47.404;-1.384;2023-03-23T05:58:54;19.42;;;3.20;;
77944;SDS011;67142;47.404;-1.384;2023-03-23T06:01:20;15.13;;;2.10;;
77944;SDS011;67142;47.404;-1.384;2023-03-23T06:03:46;13.70;;;2.20;;
77944;SDS011;67142;47.404;-1.384;2023-03-23T06:06:16;13.35;;;2.10;;
77944;SDS011;67142;47.404;-1.384;2023-03-23T06:08:42;14.77;;;2.05;;
77944;SDS011;67142;47.404;-1.384;2023-03-23T06:11:09;13.60;;;2.72;;
77944;SDS011;67142;47.404;-1.384;2023-03-23T06:13:35;15.83;;;2.30;;
77944;SDS011;67142;47.404;-1.384;2023-03-23T06:16:02;22.50;;;2.33;;
77944;SDS011;67142;47.404;-1.384;2023-03-23T06:18:29;16.13;;;2.20;;
77944;SDS011;67142;47.404;-1.384;2023-03-23T06:20:58;18.88;;;2.40;;
77944;SDS011;67142;47.404;-1.384;2023-03-23T06:23:25;13.75;;;2.70;;
77944;SDS011;67142;47.404;-1.384;2023-03-23T06:25:55;19.40;;;2.20;;
77944;SDS011;67142;47.404;-1.384;2023-03-23T06:28:23;13.20;;;1.60;;
77944;SDS011;67142;47.404;-1.384;2023-03-23T06:30:50;13.32;;;2.00;;
77944;SDS011;67142;47.404;-1.384;2023-03-23T06:33:16;12.63;;;1.95;;
77944;SDS011;67142;47.404;-1.384;2023-03-23T06:35:43;17.27;;;2.42;;
77944;SDS011;67142;47.404;-1.384;2023-03-23T06:38:09;15.63;;;2.20;;
77944;SDS011;67142;47.404;-1.384;2023-03-23T06:40:35;13.98;;;1.77;;
77944;SDS011;67142;47.404;-1.384;2023-03-23T06:43:01;15.07;;;2.10;;
77944;SDS011;67142;47.404;-1.384;2023-03-23T06:45:28;13.15;;;2.47;;
77944;SDS011;67142;47.404;-1.384;2023-03-23T06:47:54;17.55;;;2.58;;
77944;SDS011;67142;47.404;-1.384;2023-03-23T06:50:21;16.77;;;2.33;;
77944;SDS011;67142;47.404;-1.384;2023-03-23T06:52:48;14.88;;;1.90;;
77944;SDS011;67142;47.404;-1.384;2023-03-23T06:55:14;18.00;;;2.63;;
77944;SDS011;67142;47.404;-1.384;2023-03-23T06:57:42;13.57;;;2.17;;
77944;SDS011;67142;47.404;-1.384;2023-03-23T07:00:09;17.42;;;2.28;;
77944;SDS011;67142;47.404;-1.384;2023-03-23T07:02:42;22.27;;;2.40;;
77944;SDS011;67142;47.404;-1.384;2023-03-23T07:05:09;26.08;;;3.10;;
77944;SDS011;67142;47.404;-1.384;2023-03-23T07:07:35;22.77;;;3.15;;
77944;SDS011;67142;47.404;-1.384;2023-03-23T07:10:02;18.17;;;2.60;;
77944;SDS011;67142;47.404;-1.384;2023-03-23T07:12:29;16.45;;;3.22;;
77944;SDS011;67142;47.404;-1.384;2023-03-23T07:14:55;16.67;;;2.87;;
77944;SDS011;67142;47.404;-1.384;2023-03-23T07:17:21;17.98;;;2.33;;
77944;SDS011;67142;47.404;-1.384;2023-03-23T07:19:47;20.48;;;2.55;;
77944;SDS011;67142;47.404;-1.384;2023-03-23T07:22:13;20.95;;;2.42;;
77944;SDS011;67142;47.404;-1.384;2023-03-23T07:24:39;17.63;;;2.53;;
77944;SDS011;67142;47.404;-1.384;2023-03-23T07:27:05;17.83;;;2.30;;
77944;SDS011;67142;47.404;-1.384;2023-03-23T07:29:31;15.68;;;2.65;;
77944;SDS011;67142;47.404;-1.384;2023-03-23T07:32:00;19.52;;;2.85;;
77944;SDS011;67142;47.404;-1.384;2023-03-23T07:34:26;17.15;;;2.42;;
77944;SDS011;67142;47.404;-1.384;2023-03-23T07:36:53;20.02;;;2.72;;
77944;SDS011;67142;47.404;-1.384;2023-03-23T07:39:19;16.10;;;2.23;;
77944;SDS011;67142;47.404;-1.384;2023-03-23T07:41:45;14.73;;;2.45;;
77944;SDS011;67142;47.404;-1.384;2023-03-23T07:44:11;17.67;;;2.83;;
77944;SDS011;67142;47.404;-1.384;2023-03-23T07:46:37;22.90;;;3.10;;
77944;SDS011;67142;47.404;-1.384;2023-03-23T07:49:03;23.27;;;2.85;;
77944;SDS011;67142;47.404;-1.384;2023-03-23T07:51:30;19.43;;;2.90;;
77944;SDS011;67142;47.404;-1.384;2023-03-23T07:53:56;18.25;;;2.90;;
77944;SDS011;67142;47.404;-1.384;2023-03-23T07:56:23;21.33;;;2.63;;
77944;SDS011;67142;47.404;-1.384;2023-03-23T07:58:49;19.52;;;3.22;;
77944;SDS011;67142;47.404;-1.384;2023-03-23T08:01:16;18.50;;;2.97;;
77944;SDS011;67142;47.404;-1.384;2023-03-23T08:03:43;23.67;;;3.10;;
77944;SDS011;67142;47.404;-1.384;2023-03-23T08:06:09;20.88;;;3.58;;
77944;SDS011;67142;47.404;-1.384;2023-03-23T08:08:35;18.95;;;2.88;;
77944;SDS011;67142;47.404;-1.384;2023-03-23T08:11:02;18.42;;;2.70;;
77944;SDS011;67142;47.404;-1.384;2023-03-23T08:13:28;19.70;;;3.55;;
77944;SDS011;67142;47.404;-1.384;2023-03-23T08:15:54;27.90;;;3.37;;
77944;SDS011;67142;47.404;-1.384;2023-03-23T08:18:21;20.63;;;2.80;;
77944;SDS011;67142;47.404;-1.384;2023-03-23T08:20:47;19.25;;;2.67;;
77944;SDS011;67142;47.404;-1.384;2023-03-23T08:23:14;21.75;;;3.10;;
77944;SDS011;67142;47.404;-1.384;2023-03-23T08:25:41;19.23;;;3.13;;
77944;SDS011;67142;47.404;-1.384;2023-03-23T08:28:08;22.77;;;3.37;;
77944;SDS011;67142;47.404;-1.384;2023-03-23T08:30:34;26.08;;;3.70;;
77944;SDS011;67142;47.404;-1.384;2023-03-23T08:33:03;19.52;;;3.10;;
77944;SDS011;67142;47.404;-1.384;2023-03-23T08:35:29;28.80;;;3.70;;
77944;SDS011;67142;47.404;-1.384;2023-03-23T08:37:55;22.88;;;3.80;;
77944;SDS011;67142;47.404;-1.384;2023-03-23T08:40:22;23.13;;;3.20;;
77944;SDS011;67142;47.404;-1.384;2023-03-23T08:42:49;20.73;;;3.55;;
77944;SDS011;67142;47.404;-1.384;2023-03-23T08:45:17;16.15;;;3.05;;
77944;SDS011;67142;47.404;-1.384;2023-03-23T08:47:43;21.90;;;2.53;;
77944;SDS011;67142;47.404;-1.384;2023-03-23T08:50:17;15.18;;;2.95;;
77944;SDS011;67142;47.404;-1.384;2023-03-23T08:52:43;20.57;;;3.53;;
77944;SDS011;67142;47.404;-1.384;2023-03-23T08:55:09;26.50;;;3.60;;
77944;SDS011;67142;47.404;-1.384;2023-03-23T08:57:36;21.60;;;3.75;;
77944;SDS011;67142;47.404;-1.384;2023-03-23T09:00:03;18.98;;;3.05;;
77944;SDS011;67142;47.404;-1.384;2023-03-23T09:02:40;23.00;;;3.38;;
77944;SDS011;67142;47.404;-1.384;2023-03-23T09:05:07;18.40;;;3.17;;
77944;SDS011;67142;47.404;-1.384;2023-03-23T09:07:35;18.75;;;3.25;;
77944;SDS011;67142;47.404;-1.384;2023-03-23T09:10:01;16.65;;;3.03;;
77944;SDS011;67142;47.404;-1.384;2023-03-23T09:12:27;20.20;;;3.40;;
77944;SDS011;67142;47.404;-1.384;2023-03-23T09:14:54;24.70;;;3.60;;
77944;SDS011;67142;47.404;-1.384;2023-03-23T09:17:21;22.53;;;3.07;;
77944;SDS011;67142;47.404;-1.384;2023-03-23T09:19:47;26.17;;;4.13;;
77944;SDS011;67142;47.404;-1.384;2023-03-23T09:22:13;23.35;;;3.67;;
77944;SDS011;67142;47.404;-1.384;2023-03-23T09:24:40;16.77;;;3.17;;
77944;SDS011;67142;47.404;-1.384;2023-03-23T09:27:06;23.13;;;3.85;;
77944;SDS011;67142;47.404;-1.384;2023-03-23T09:29:32;20.13;;;4.20;;
77944;SDS011;67142;47.404;-1.384;2023-03-23T09:31:58;19.45;;;3.30;;
77944;SDS011;67142;47.404;-1.384;2023-03-23T09:34:24;22.65;;;3.85;;
77944;SDS011;67142;47.404;-1.384;2023-03-23T09:36:50;21.92;;;3.05;;
77944;SDS011;67142;47.404;-1.384;2023-03-23T09:39:16;24.08;;;3.67;;
77944;SDS011;67142;47.404;-1.384;2023-03-23T09:51:57;25.52;;;4.22;;
77944;SDS011;67142;47.404;-1.384;2023-03-23T09:54:29;25.50;;;3.53;;
77944;SDS011;67142;47.404;-1.384;2023-03-23T09:56:57;24.80;;;3.47;;
77944;SDS011;67142;47.404;-1.384;2023-03-23T10:01:51;18.33;;;3.80;;
77944;SDS011;67142;47.404;-1.384;2023-03-23T10:04:33;21.92;;;3.58;;
77944;SDS011;67142;47.404;-1.384;2023-03-23T10:07:42;26.13;;;3.53;;
77944;SDS011;67142;47.404;-1.384;2023-03-23T10:09:54;22.33;;;2.80;;
77944;SDS011;67142;47.404;-1.384;2023-03-23T10:12:27;19.33;;;3.00;;
77944;SDS011;67142;47.404;-1.384;2023-03-23T10:22:31;20.98;;;3.67;;
77944;SDS011;67142;47.404;-1.384;2023-03-23T10:25:31;18.25;;;3.25;;
77944;SDS011;67142;47.404;-1.384;2023-03-23T10:30:21;21.23;;;3.13;;
77944;SDS011;67142;47.404;-1.384;2023-03-23T10:32:58;21.77;;;3.83;;
77944;SDS011;67142;47.404;-1.384;2023-03-23T10:35:29;14.98;;;2.90;;
77944;SDS011;67142;47.404;-1.384;2023-03-23T10:37:59;16.13;;;2.90;;
77944;SDS011;67142;47.404;-1.384;2023-03-23T10:40:27;20.27;;;3.40;;
77944;SDS011;67142;47.404;-1.384;2023-03-23T10:42:54;18.50;;;2.92;;
77944;SDS011;67142;47.404;-1.384;2023-03-23T10:45:21;16.67;;;3.43;;
77944;SDS011;67142;47.404;-1.384;2023-03-23T10:47:51;19.65;;;4.43;;
77944;SDS011;67142;47.404;-1.384;2023-03-23T10:50:22;22.00;;;4.20;;
77944;SDS011;67142;47.404;-1.384;2023-03-23T10:52:49;16.90;;;3.42;;
77944;SDS011;67142;47.404;-1.384;2023-03-23T10:55:17;22.58;;;3.88;;
77944;SDS011;67142;47.404;-1.384;2023-03-23T10:57:45;19.07;;;3.60;;
77944;SDS011;67142;47.404;-1.384;2023-03-23T11:00:21;18.17;;;3.50;;
77944;SDS011;67142;47.404;-1.384;2023-03-23T11:02:57;19.88;;;4.20;;
77944;SDS011;67142;47.404;-1.384;2023-03-23T11:05:25;21.17;;;3.67;;
77944;SDS011;67142;47.404;-1.384;2023-03-23T11:07:55;24.77;;;3.67;;
77944;SDS011;67142;47.404;-1.384;2023-03-23T11:10:35;19.73;;;3.50;;
77944;SDS011;67142;47.404;-1.384;2023-03-23T11:13:02;17.33;;;3.30;;
77944;SDS011;67142;47.404;-1.384;2023-03-23T11:15:30;21.33;;;3.38;;
77944;SDS011;67142;47.404;-1.384;2023-03-23T11:18:03;15.10;;;3.10;;
77944;SDS011;67142;47.404;-1.384;2023-03-23T11:20:34;19.95;;;3.40;;
77944;SDS011;67142;47.404;-1.384;2023-03-23T11:23:01;18.43;;;2.93;;
77944;SDS011;67142;47.404;-1.384;2023-03-23T11:25:27;23.17;;;3.55;;
77944;SDS011;67142;47.404;-1.384;2023-03-23T11:27:53;20.02;;;2.65;;
77944;SDS011;67142;47.404;-1.384;2023-03-23T11:30:21;17.73;;;3.28;;
77944;SDS011;67142;47.404;-1.384;2023-03-23T11:32:49;18.88;;;3.00;;
77944;SDS011;67142;47.404;-1.384;2023-03-23T11:35:26;22.20;;;4.10;;
77944;SDS011;67142;47.404;-1.384;2023-03-23T11:37:56;20.65;;;3.38;;
77944;SDS011;67142;47.404;-1.384;2023-03-23T11:40:24;24.58;;;3.92;;
77944;SDS011;67142;47.404;-1.384;2023-03-23T11:55:25;17.88;;;3.72;;
77944;SDS011;67142;47.404;-1.384;2023-03-23T11:57:52;22.58;;;4.03;;
77944;SDS011;67142;47.404;-1.384;2023-03-23T12:00:20;20.67;;;4.13;;
77944;SDS011;67142;47.404;-1.384;2023-03-23T12:02:52;21.63;;;3.97;;
77944;SDS011;67142;47.404;-1.384;2023-03-23T12:08:02;21.00;;;3.10;;
77944;SDS011;67142;47.404;-1.384;2023-03-23T12:18:09;19.60;;;3.30;;
77944;SDS011;67142;47.404;-1.384;2023-03-23T12:25:42;21.00;;;3.40;;
77944;SDS011;67142;47.404;-1.384;2023-03-23T12:30:40;21.42;;;3.83;;
77944;SDS011;67142;47.404;-1.384;2023-03-23T12:33:11;18.73;;;3.38;;
77944;SDS011;67142;47.404;-1.384;2023-03-23T12:46:17;19.98;;;3.90;;
77944;SDS011;67142;47.404;-1.384;2023-03-23T12:48:51;19.90;;;3.75;;
77944;SDS011;67142;47.404;-1.384;2023-03-23T12:51:27;21.97;;;3.47;;
77944;SDS011;67142;47.404;-1.384;2023-03-23T12:53:57;16.48;;;2.80;;
77944;SDS011;67142;47.404;-1.384;2023-03-23T12:56:35;17.80;;;3.80;;
77944;SDS011;67142;47.404;-1.384;2023-03-23T12:59:06;19.90;;;3.40;;
77944;SDS011;67142;47.404;-1.384;2023-03-23T13:01:39;15.43;;;2.83;;
77944;SDS011;67142;47.404;-1.384;2023-03-23T13:06:36;16.23;;;2.70;;
77944;SDS011;67142;47.404;-1.384;2023-03-23T13:09:05;15.63;;;2.40;;
77944;SDS011;67142;47.404;-1.384;2023-03-23T13:11:36;15.48;;;2.15;;
77944;SDS011;67142;47.404;-1.384;2023-03-23T13:21:38;20.48;;;3.35;;
77944;SDS011;67142;47.404;-1.384;2023-03-23T13:24:09;20.10;;;3.40;;
77944;SDS011;67142;47.404;-1.384;2023-03-23T13:26:40;18.20;;;2.83;;
77944;SDS011;67142;47.404;-1.384;2023-03-23T13:31:37;15.70;;;2.65;;
77944;SDS011;67142;47.404;-1.384;2023-03-23T13:39:26;14.85;;;2.85;;
77944;SDS011;67142;47.404;-1.384;2023-03-23T13:47:16;13.88;;;2.50;;
77944;SDS011;67142;47.404;-1.384;2023-03-23T13:49:52;15.68;;;3.10;;
77944;SDS011;67142;47.404;-1.384;2023-03-23T14:03:12;14.18;;;2.53;;
77944;SDS011;67142;47.404;-1.384;2023-03-23T14:05:40;14.50;;;3.42;;
77944;SDS011;67142;47.404;-1.384;2023-03-23T14:10:33;14.25;;;2.70;;
77944;SDS011;67142;47.404;-1.384;2023-03-23T14:13:00;11.85;;;2.30;;
77944;SDS011;67142;47.404;-1.384;2023-03-23T14:15:30;13.82;;;2.47;;
77944;SDS011;67142;47.404;-1.384;2023-03-23T14:17:56;15.70;;;2.78;;
77944;SDS011;67142;47.404;-1.384;2023-03-23T14:20:29;12.43;;;2.43;;
77944;SDS011;67142;47.404;-1.384;2023-03-23T14:22:57;17.08;;;2.53;;
77944;SDS011;67142;47.404;-1.384;2023-03-23T14:25:26;15.80;;;2.35;;
77944;SDS011;67142;47.404;-1.384;2023-03-23T14:27:52;11.23;;;2.25;;
77944;SDS011;67142;47.404;-1.384;2023-03-23T14:30:20;9.38;;;2.10;;
77944;SDS011;67142;47.404;-1.384;2023-03-23T14:32:47;10.77;;;2.20;;
77944;SDS011;67142;47.404;-1.384;2023-03-23T14:37:40;15.32;;;2.67;;
77944;SDS011;67142;47.404;-1.384;2023-03-23T14:40:08;13.23;;;2.28;;
77944;SDS011;67142;47.404;-1.384;2023-03-23T14:42:35;17.17;;;2.80;;
77944;SDS011;67142;47.404;-1.384;2023-03-23T14:45:03;8.27;;;2.20;;
77944;SDS011;67142;47.404;-1.384;2023-03-23T14:47:31;13.75;;;2.60;;
77944;SDS011;67142;47.404;-1.384;2023-03-23T14:49:59;15.00;;;2.38;;
77944;SDS011;67142;47.404;-1.384;2023-03-23T14:52:26;16.23;;;2.97;;
77944;SDS011;67142;47.404;-1.384;2023-03-23T14:54:52;16.65;;;3.80;;
77944;SDS011;67142;47.404;-1.384;2023-03-23T14:59:51;18.35;;;2.83;;
77944;SDS011;67142;47.404;-1.384;2023-03-23T15:02:33;11.13;;;2.50;;
77944;SDS011;67142;47.404;-1.384;2023-03-23T15:05:08;13.32;;;2.70;;
77944;SDS011;67142;47.404;-1.384;2023-03-23T15:07:35;14.98;;;3.08;;
77944;SDS011;67142;47.404;-1.384;2023-03-23T15:10:05;10.77;;;3.17;;
77944;SDS011;67142;47.404;-1.384;2023-03-23T15:12:32;18.90;;;4.28;;
77944;SDS011;67142;47.404;-1.384;2023-03-23T15:15:00;14.65;;;4.05;;
77944;SDS011;67142;47.404;-1.384;2023-03-23T15:17:30;16.15;;;4.35;;
77944;SDS011;67142;47.404;-1.384;2023-03-23T15:19:57;12.57;;;3.63;;
77944;SDS011;67142;47.404;-1.384;2023-03-23T15:24:51;12.90;;;3.45;;
77944;SDS011;67142;47.404;-1.384;2023-03-23T15:27:24;14.20;;;3.58;;
77944;SDS011;67142;47.404;-1.384;2023-03-23T15:29:56;13.98;;;3.55;;
77944;SDS011;67142;47.404;-1.384;2023-03-23T15:32:27;9.88;;;3.70;;
77944;SDS011;67142;47.404;-1.384;2023-03-23T15:34:54;24.43;;;3.43;;
77944;SDS011;67142;47.404;-1.384;2023-03-23T15:37:27;9.50;;;2.90;;
77944;SDS011;67142;47.404;-1.384;2023-03-23T15:39:54;16.58;;;4.25;;
77944;SDS011;67142;47.404;-1.384;2023-03-23T15:42:25;13.73;;;3.70;;
77944;SDS011;67142;47.404;-1.384;2023-03-23T15:50:48;14.82;;;3.72;;
77944;SDS011;67142;47.404;-1.384;2023-03-23T15:52:49;8.68;;;3.67;;
77944;SDS011;67142;47.404;-1.384;2023-03-23T15:55:26;11.73;;;4.18;;
77944;SDS011;67142;47.404;-1.384;2023-03-23T15:57:53;11.73;;;3.65;;
77944;SDS011;67142;47.404;-1.384;2023-03-23T16:00:20;11.53;;;3.40;;
77944;SDS011;67142;47.404;-1.384;2023-03-23T16:02:48;14.05;;;3.67;;
77944;SDS011;67142;47.404;-1.384;2023-03-23T16:05:15;14.85;;;3.92;;
77944;SDS011;67142;47.404;-1.384;2023-03-23T16:07:41;12.48;;;4.13;;
77944;SDS011;67142;47.404;-1.384;2023-03-23T16:10:10;12.45;;;4.07;;
77944;SDS011;67142;47.404;-1.384;2023-03-23T16:12:40;11.30;;;3.90;;
77944;SDS011;67142;47.404;-1.384;2023-03-23T16:15:06;13.90;;;3.50;;
77944;SDS011;67142;47.404;-1.384;2023-03-23T16:17:33;13.20;;;3.75;;
77944;SDS011;67142;47.404;-1.384;2023-03-23T16:19:59;17.40;;;6.20;;
77944;SDS011;67142;47.404;-1.384;2023-03-23T16:22:25;16.70;;;3.60;;
77944;SDS011;67142;47.404;-1.384;2023-03-23T16:24:51;33.77;;;4.57;;
77944;SDS011;67142;47.404;-1.384;2023-03-23T16:27:17;16.63;;;4.20;;
77944;SDS011;67142;47.404;-1.384;2023-03-23T16:29:45;16.17;;;5.03;;
77944;SDS011;67142;47.404;-1.384;2023-03-23T16:32:11;19.65;;;5.45;;
77944;SDS011;67142;47.404;-1.384;2023-03-23T16:34:37;13.05;;;4.45;;
77944;SDS011;67142;47.404;-1.384;2023-03-23T16:37:03;20.63;;;3.63;;
77944;SDS011;67142;47.404;-1.384;2023-03-23T16:39:30;12.68;;;3.65;;
77944;SDS011;67142;47.404;-1.384;2023-03-23T16:41:56;18.52;;;4.45;;
77944;SDS011;67142;47.404;-1.384;2023-03-23T16:44:22;11.32;;;3.83;;
77944;SDS011;67142;47.404;-1.384;2023-03-23T16:46:48;11.45;;;3.80;;